CST,Max TemperatureF,Mean TemperatureF,Min TemperatureF,Max Dew PointF,MeanDew PointF,Min DewpointF,Max Humidity, Mean Humidity, Min Humidity, Max Sea Level PressureIn, Mean Sea Level PressureIn, Min Sea Level PressureIn, Max VisibilityMiles, Mean VisibilityMiles, Min VisibilityMiles, Max Wind SpeedMPH, Mean Wind SpeedMPH, Max Gust SpeedMPH,PrecipitationIn, CloudCover, Events, WindDirDegrees
2014-1-1,55,48,42,52,48,37,96,89,77,30.29,30.14,30.04,10,6,2,8,3,,0.08,8,Rain,149
2014-1-2,57,46,33,55,45,22,100,82,46,30.37,30.08,29.97,10,7,2,23,6,33,0.11,5,Rain,328
2014-1-3,45,36,27,22,17,11,78,53,26,30.46,30.38,30.29,10,10,10,12,6,20,0.00,0,,36
2014-1-4,57,41,25,46,30,17,97,69,55,30.27,30.18,30.03,10,10,4,15,4,,0.00,4,,148
2014-1-5,66,50,30,59,46,24,100,89,65,30.20,29.98,29.81,10,6,0,25,8,36,0.17,8,Fog-Rain,213
2014-1-6,30,24,19,22,9,0,69,52,29,30.61,30.48,30.23,10,10,10,23,15,31,0.00,2,,342
2014-1-7,35,24,14,15,9,2,84,56,28,30.68,30.58,30.50,10,10,10,6,1,,0.00,0,,358
2014-1-8,50,34,18,27,18,9,85,54,27,30.51,30.42,30.34,10,10,10,9,2,,0.00,1,,132
2014-1-9,64,50,37,45,33,21,90,56,36,30.35,30.28,30.20,10,10,8,14,5,17,0.00,4,,129
2014-1-10,64,54,44,64,53,41,100,94,78,30.18,30.02,29.83,10,4,0,20,6,31,0.19,7,Fog-Rain-Thunderstorm,156
2014-1-11,66,52,37,66,54,25,100,78,21,30.10,29.90,29.79,10,8,2,23,12,33,0.65,5,Rain-Thunderstorm,264
2014-1-12,66,50,33,41,33,30,92,60,26,30.21,30.12,30.03,10,10,10,14,4,,0.00,0,Rain,168
2014-1-13,63,56,50,63,55,40,100,92,68,30.05,29.92,29.83,10,5,1,17,6,,0.41,5,Rain,225
2014-1-14,63,50,37,39,34,26,93,60,25,30.10,30.06,30.01,10,10,10,9,4,,0.00,0,,289
2014-1-15,51,40,28,36,24,13,89,54,22,30.26,30.18,30.09,10,10,10,21,9,30,0.00,1,,328
2014-1-16,60,43,26,40,28,22,88,59,26,30.20,30.12,30.04,10,10,10,13,4,23,0.00,0,,214
2014-1-17,54,43,28,40,25,11,86,55,20,30.26,30.18,30.07,10,10,10,20,6,28,0.00,1,,296
2014-1-18,60,42,24,29,21,12,85,49,19,30.30,30.19,30.10,10,10,10,13,4,21,0.00,0,,204
2014-1-19,63,50,34,42,33,23,97,65,22,30.25,30.16,30.09,10,8,2,13,4,22,0.00,0,,293
2014-1-20,66,48,30,44,34,27,89,64,26,30.13,30.04,29.97,10,10,9,10,2,,0.00,1,,221
2014-1-21,57,44,30,56,29,12,94,51,21,30.23,30.09,29.94,10,10,8,26,10,33,0.00,2,,330
2014-1-22,53,38,23,30,20,13,81,53,23,30.25,30.20,30.14,10,10,10,9,3,,0.00,0,,16
2014-1-23,46,36,27,30,25,18,93,68,36,30.63,30.45,30.21,10,7,1,16,6,23,0.03,6,Rain-Snow,19
2014-1-24,28,26,21,23,16,9,89,65,45,30.63,30.53,30.33,10,9,2,10,7,18,0.02,7,Snow,11
2014-1-25,55,38,21,30,24,18,96,76,30,30.31,30.18,30.03,10,7,1,10,3,16,0.00,4,,244
2014-1-26,59,46,33,47,37,30,92,71,39,30.04,29.95,29.86,10,10,9,10,3,,0.00,2,,171
2014-1-27,57,47,36,55,44,10,100,79,29,30.15,29.95,29.86,10,6,0,17,5,24,0.01,8,Fog-Rain,357
2014-1-28,35,28,21,22,18,8,88,76,34,30.40,30.27,30.14,10,6,1,18,12,28,0.40,7,Rain,2
2014-1-29,30,24,18,14,7,4,81,51,35,30.49,30.41,30.35,10,10,10,12,8,,0.00,0,,12
2014-1-30,48,31,14,29,17,8,89,61,30,30.34,30.22,30.11,10,10,10,14,3,,0.00,0,,164
2014-1-31,62,46,30,46,39,27,96,77,53,30.17,30.10,30.04,10,10,4,12,4,,0.00,4,,156